sensor_id;sensor_type;location;lat;lon;timestamp;temperature;humidity
22738;DHT22;11536;50.860;4.286;2022-12-07T00:01:41;6.60;99.90
22738;DHT22;11536;50.860;4.286;2022-12-07T00:04:10;6.60;99.90
22738;DHT22;11536;50.860;4.286;2022-12-07T00:06:36;6.60;99.90
22738;DHT22;11536;50.860;4.286;2022-12-07T00:09:03;6.60;99.90
22738;DHT22;11536;50.860;4.286;2022-12-07T00:11:29;6.60;99.90
22738;DHT22;11536;50.860;4.286;2022-12-07T00:14:00;6.60;99.90
22738;DHT22;11536;50.860;4.286;2022-12-07T00:16:29;6.60;99.90
22738;DHT22;11536;50.860;4.286;2022-12-07T00:18:55;6.60;99.90
22738;DHT22;11536;50.860;4.286;2022-12-07T00:21:41;6.50;99.90
22738;DHT22;11536;50.860;4.286;2022-12-07T00:24:07;6.50;99.90
22738;DHT22;11536;50.860;4.286;2022-12-07T00:26:35;6.50;99.90
22738;DHT22;11536;50.860;4.286;2022-12-07T00:29:04;6.40;99.90
22738;DHT22;11536;50.860;4.286;2022-12-07T00:31:32;6.40;99.90
22738;DHT22;11536;50.860;4.286;2022-12-07T00:33:59;6.40;99.90
22738;DHT22;11536;50.860;4.286;2022-12-07T00:36:25;6.40;99.90
22738;DHT22;11536;50.860;4.286;2022-12-07T00:38:51;6.40;99.90
22738;DHT22;11536;50.860;4.286;2022-12-07T00:41:22;6.40;99.90
22738;DHT22;11536;50.860;4.286;2022-12-07T00:43:49;6.30;99.90
22738;DHT22;11536;50.860;4.286;2022-12-07T00:46:16;6.30;99.90
22738;DHT22;11536;50.860;4.286;2022-12-07T00:48:42;6.30;99.90
22738;DHT22;11536;50.860;4.286;2022-12-07T00:51:11;6.30;99.90
22738;DHT22;11536;50.860;4.286;2022-12-07T00:53:37;6.20;99.90
22738;DHT22;11536;50.860;4.286;2022-12-07T00:56:07;6.10;99.90
22738;DHT22;11536;50.860;4.286;2022-12-07T00:58:33;6.10;99.90
22738;DHT22;11536;50.860;4.286;2022-12-07T01:01:03;6.10;99.90
22738;DHT22;11536;50.860;4.286;2022-12-07T01:03:29;6.10;99.90
22738;DHT22;11536;50.860;4.286;2022-12-07T01:05:56;6.00;99.90
22738;DHT22;11536;50.860;4.286;2022-12-07T01:08:22;6.00;99.90
22738;DHT22;11536;50.860;4.286;2022-12-07T01:10:48;6.00;99.90
22738;DHT22;11536;50.860;4.286;2022-12-07T01:13:15;5.90;99.90
22738;DHT22;11536;50.860;4.286;2022-12-07T01:15:42;5.90;99.90
22738;DHT22;11536;50.860;4.286;2022-12-07T01:18:08;5.90;99.90
22738;DHT22;11536;50.860;4.286;2022-12-07T01:20:34;5.90;99.90
22738;DHT22;11536;50.860;4.286;2022-12-07T01:23:00;5.90;99.90
22738;DHT22;11536;50.860;4.286;2022-12-07T01:25:26;5.80;99.90
22738;DHT22;11536;50.860;4.286;2022-12-07T01:27:51;5.80;99.90
22738;DHT22;11536;50.860;4.286;2022-12-07T01:30:17;5.80;99.90
22738;DHT22;11536;50.860;4.286;2022-12-07T01:32:42;5.80;99.90
22738;DHT22;11536;50.860;4.286;2022-12-07T01:35:08;5.70;99.90
22738;DHT22;11536;50.860;4.286;2022-12-07T01:37:35;5.70;99.90
22738;DHT22;11536;50.860;4.286;2022-12-07T01:40:02;5.70;99.90
22738;DHT22;11536;50.860;4.286;2022-12-07T01:42:28;5.70;99.90
22738;DHT22;11536;50.860;4.286;2022-12-07T01:47:58;5.70;99.90
22738;DHT22;11536;50.860;4.286;2022-12-07T01:50:26;5.70;99.90
22738;DHT22;11536;50.860;4.286;2022-12-07T01:52:54;5.60;99.90
22738;DHT22;11536;50.860;4.286;2022-12-07T01:55:21;5.60;99.90
22738;DHT22;11536;50.860;4.286;2022-12-07T01:57:51;5.60;99.90
22738;DHT22;11536;50.860;4.286;2022-12-07T02:00:18;5.60;99.90
22738;DHT22;11536;50.860;4.286;2022-12-07T02:03:08;5.60;99.90
22738;DHT22;11536;50.860;4.286;2022-12-07T02:05:37;5.70;99.90
22738;DHT22;11536;50.860;4.286;2022-12-07T02:08:04;5.70;99.90
22738;DHT22;11536;50.860;4.286;2022-12-07T02:10:31;5.70;99.90
22738;DHT22;11536;50.860;4.286;2022-12-07T02:13:03;5.70;99.90
22738;DHT22;11536;50.860;4.286;2022-12-07T02:15:44;5.70;99.90
22738;DHT22;11536;50.860;4.286;2022-12-07T02:18:25;5.70;99.90
22738;DHT22;11536;50.860;4.286;2022-12-07T02:21:03;5.70;99.90
22738;DHT22;11536;50.860;4.286;2022-12-07T02:23:51;5.70;99.90
22738;DHT22;11536;50.860;4.286;2022-12-07T02:29:26;5.80;99.90
22738;DHT22;11536;50.860;4.286;2022-12-07T02:43:28;5.80;99.90
22738;DHT22;11536;50.860;4.286;2022-12-07T02:46:05;5.80;99.90
22738;DHT22;11536;50.860;4.286;2022-12-07T02:48:33;5.80;99.90
22738;DHT22;11536;50.860;4.286;2022-12-07T02:51:00;5.80;99.90
22738;DHT22;11536;50.860;4.286;2022-12-07T02:53:40;5.80;99.90
22738;DHT22;11536;50.860;4.286;2022-12-07T03:02:28;5.80;99.90
22738;DHT22;11536;50.860;4.286;2022-12-07T03:13:24;5.80;99.90
22738;DHT22;11536;50.860;4.286;2022-12-07T03:16:04;5.80;99.90
22738;DHT22;11536;50.860;4.286;2022-12-07T03:18:34;5.70;99.90
22738;DHT22;11536;50.860;4.286;2022-12-07T03:21:06;5.70;99.90
22738;DHT22;11536;50.860;4.286;2022-12-07T03:23:35;5.70;99.90
22738;DHT22;11536;50.860;4.286;2022-12-07T03:26:03;5.70;99.90
22738;DHT22;11536;50.860;4.286;2022-12-07T03:28:35;5.60;99.90
22738;DHT22;11536;50.860;4.286;2022-12-07T03:31:09;5.60;99.90
22738;DHT22;11536;50.860;4.286;2022-12-07T03:33:49;5.60;99.90
22738;DHT22;11536;50.860;4.286;2022-12-07T03:36:29;5.60;99.90
22738;DHT22;11536;50.860;4.286;2022-12-07T03:39:03;5.60;99.90
22738;DHT22;11536;50.860;4.286;2022-12-07T03:41:34;5.60;99.90
22738;DHT22;11536;50.860;4.286;2022-12-07T03:44:01;5.60;99.90
22738;DHT22;11536;50.860;4.286;2022-12-07T03:46:48;5.60;99.90
22738;DHT22;11536;50.860;4.286;2022-12-07T03:54:52;5.60;99.90
22738;DHT22;11536;50.860;4.286;2022-12-07T03:57:19;5.60;99.90
22738;DHT22;11536;50.860;4.286;2022-12-07T03:59:46;5.60;99.90
22738;DHT22;11536;50.860;4.286;2022-12-07T04:02:13;5.60;99.90
22738;DHT22;11536;50.860;4.286;2022-12-07T04:04:39;5.60;99.90
22738;DHT22;11536;50.860;4.286;2022-12-07T04:07:05;5.50;99.90
22738;DHT22;11536;50.860;4.286;2022-12-07T04:09:30;5.50;99.90
22738;DHT22;11536;50.860;4.286;2022-12-07T04:11:56;5.50;99.90
22738;DHT22;11536;50.860;4.286;2022-12-07T04:14:22;5.50;99.90
22738;DHT22;11536;50.860;4.286;2022-12-07T04:16:53;5.50;99.90
22738;DHT22;11536;50.860;4.286;2022-12-07T04:19:20;5.50;99.90
22738;DHT22;11536;50.860;4.286;2022-12-07T04:21:47;5.50;99.90
22738;DHT22;11536;50.860;4.286;2022-12-07T04:24:14;5.40;99.90
22738;DHT22;11536;50.860;4.286;2022-12-07T04:26:40;5.40;99.90
22738;DHT22;11536;50.860;4.286;2022-12-07T04:29:06;5.30;99.90
22738;DHT22;11536;50.860;4.286;2022-12-07T04:31:32;5.30;99.90
22738;DHT22;11536;50.860;4.286;2022-12-07T04:33:57;5.30;99.90
22738;DHT22;11536;50.860;4.286;2022-12-07T04:36:23;5.30;99.90
22738;DHT22;11536;50.860;4.286;2022-12-07T04:38:49;5.30;99.90
22738;DHT22;11536;50.860;4.286;2022-12-07T04:41:14;5.30;99.90
22738;DHT22;11536;50.860;4.286;2022-12-07T04:43:43;5.30;99.90
22738;DHT22;11536;50.860;4.286;2022-12-07T04:46:08;5.30;99.90
22738;DHT22;11536;50.860;4.286;2022-12-07T04:48:34;5.30;99.90
22738;DHT22;11536;50.860;4.286;2022-12-07T04:50:59;5.40;99.90
22738;DHT22;11536;50.860;4.286;2022-12-07T04:53:25;5.40;99.90
22738;DHT22;11536;50.860;4.286;2022-12-07T04:55:50;5.40;99.90
22738;DHT22;11536;50.860;4.286;2022-12-07T04:58:16;5.40;99.90
22738;DHT22;11536;50.860;4.286;2022-12-07T05:00:42;5.40;99.90
22738;DHT22;11536;50.860;4.286;2022-12-07T05:03:07;5.40;99.90
22738;DHT22;11536;50.860;4.286;2022-12-07T05:05:33;5.40;99.90
22738;DHT22;11536;50.860;4.286;2022-12-07T05:07:58;5.40;99.90
22738;DHT22;11536;50.860;4.286;2022-12-07T05:10:24;5.40;99.90
22738;DHT22;11536;50.860;4.286;2022-12-07T05:12:49;5.40;99.90
22738;DHT22;11536;50.860;4.286;2022-12-07T05:15:15;5.40;99.90
22738;DHT22;11536;50.860;4.286;2022-12-07T05:17:41;5.40;99.90
22738;DHT22;11536;50.860;4.286;2022-12-07T05:20:08;5.40;99.90
22738;DHT22;11536;50.860;4.286;2022-12-07T05:22:33;5.40;99.90
22738;DHT22;11536;50.860;4.286;2022-12-07T05:24:59;5.40;99.90
22738;DHT22;11536;50.860;4.286;2022-12-07T05:27:25;5.30;99.90
22738;DHT22;11536;50.860;4.286;2022-12-07T05:29:50;5.30;99.90
22738;DHT22;11536;50.860;4.286;2022-12-07T05:32:16;5.30;99.90
22738;DHT22;11536;50.860;4.286;2022-12-07T05:34:42;5.30;99.90
22738;DHT22;11536;50.860;4.286;2022-12-07T05:37:08;5.30;99.90
22738;DHT22;11536;50.860;4.286;2022-12-07T05:39:33;5.30;99.90
22738;DHT22;11536;50.860;4.286;2022-12-07T05:41:59;5.30;99.90
22738;DHT22;11536;50.860;4.286;2022-12-07T05:44:44;5.30;99.90
22738;DHT22;11536;50.860;4.286;2022-12-07T05:47:11;5.30;99.90
22738;DHT22;11536;50.860;4.286;2022-12-07T05:49:37;5.30;99.90
22738;DHT22;11536;50.860;4.286;2022-12-07T05:52:03;5.30;99.90
22738;DHT22;11536;50.860;4.286;2022-12-07T05:54:29;5.30;99.90
22738;DHT22;11536;50.860;4.286;2022-12-07T05:56:55;5.30;99.90
22738;DHT22;11536;50.860;4.286;2022-12-07T05:59:20;5.30;99.90
22738;DHT22;11536;50.860;4.286;2022-12-07T06:01:57;5.30;99.90
22738;DHT22;11536;50.860;4.286;2022-12-07T06:04:24;5.30;99.90
22738;DHT22;11536;50.860;4.286;2022-12-07T06:06:50;5.30;99.90
22738;DHT22;11536;50.860;4.286;2022-12-07T06:09:16;5.30;99.90
22738;DHT22;11536;50.860;4.286;2022-12-07T06:11:42;5.30;99.90
22738;DHT22;11536;50.860;4.286;2022-12-07T06:14:25;5.30;99.90
22738;DHT22;11536;50.860;4.286;2022-12-07T06:16:51;5.30;99.90
22738;DHT22;11536;50.860;4.286;2022-12-07T06:19:17;5.30;99.90
22738;DHT22;11536;50.860;4.286;2022-12-07T06:21:42;5.20;99.90
22738;DHT22;11536;50.860;4.286;2022-12-07T06:24:11;5.20;99.90
22738;DHT22;11536;50.860;4.286;2022-12-07T06:26:40;5.30;99.90
22738;DHT22;11536;50.860;4.286;2022-12-07T06:29:05;5.30;99.90
22738;DHT22;11536;50.860;4.286;2022-12-07T06:31:31;5.30;99.90
22738;DHT22;11536;50.860;4.286;2022-12-07T06:33:58;5.30;99.90
22738;DHT22;11536;50.860;4.286;2022-12-07T06:36:24;5.30;99.90
22738;DHT22;11536;50.860;4.286;2022-12-07T06:38:50;5.30;99.90
22738;DHT22;11536;50.860;4.286;2022-12-07T06:41:15;5.30;99.90
22738;DHT22;11536;50.860;4.286;2022-12-07T06:43:41;5.30;99.90
22738;DHT22;11536;50.860;4.286;2022-12-07T06:46:07;5.30;99.90
22738;DHT22;11536;50.860;4.286;2022-12-07T06:48:33;5.30;99.90
22738;DHT22;11536;50.860;4.286;2022-12-07T06:50:58;5.30;99.90
22738;DHT22;11536;50.860;4.286;2022-12-07T06:53:24;5.30;99.90
22738;DHT22;11536;50.860;4.286;2022-12-07T06:55:50;5.40;99.90
22738;DHT22;11536;50.860;4.286;2022-12-07T06:58:16;5.40;99.90
22738;DHT22;11536;50.860;4.286;2022-12-07T07:00:43;5.30;99.90
22738;DHT22;11536;50.860;4.286;2022-12-07T07:03:09;5.30;99.90
22738;DHT22;11536;50.860;4.286;2022-12-07T07:05:35;5.30;99.90
22738;DHT22;11536;50.860;4.286;2022-12-07T07:08:01;5.30;99.90
22738;DHT22;11536;50.860;4.286;2022-12-07T07:10:28;5.40;99.90
22738;DHT22;11536;50.860;4.286;2022-12-07T07:12:53;5.30;99.90
22738;DHT22;11536;50.860;4.286;2022-12-07T07:15:19;5.40;99.90
22738;DHT22;11536;50.860;4.286;2022-12-07T07:17:44;5.30;99.90
22738;DHT22;11536;50.860;4.286;2022-12-07T07:20:10;5.30;99.90
22738;DHT22;11536;50.860;4.286;2022-12-07T07:22:36;5.40;99.90
22738;DHT22;11536;50.860;4.286;2022-12-07T07:25:02;5.30;99.90
22738;DHT22;11536;50.860;4.286;2022-12-07T07:27:28;5.40;99.90
22738;DHT22;11536;50.860;4.286;2022-12-07T07:29:53;5.40;99.90
22738;DHT22;11536;50.860;4.286;2022-12-07T07:32:19;5.40;99.90
22738;DHT22;11536;50.860;4.286;2022-12-07T07:34:46;5.40;99.90
22738;DHT22;11536;50.860;4.286;2022-12-07T07:37:12;5.40;99.90
22738;DHT22;11536;50.860;4.286;2022-12-07T07:39:38;5.40;99.90
22738;DHT22;11536;50.860;4.286;2022-12-07T07:42:04;5.40;99.90
22738;DHT22;11536;50.860;4.286;2022-12-07T07:44:29;5.40;99.90
22738;DHT22;11536;50.860;4.286;2022-12-07T07:46:55;5.40;99.90
22738;DHT22;11536;50.860;4.286;2022-12-07T07:49:21;5.40;99.90
22738;DHT22;11536;50.860;4.286;2022-12-07T07:51:46;5.40;99.90
22738;DHT22;11536;50.860;4.286;2022-12-07T07:54:12;5.50;99.90
22738;DHT22;11536;50.860;4.286;2022-12-07T07:56:37;5.50;99.90
22738;DHT22;11536;50.860;4.286;2022-12-07T07:59:03;5.50;99.90
22738;DHT22;11536;50.860;4.286;2022-12-07T08:01:28;5.50;99.90
22738;DHT22;11536;50.860;4.286;2022-12-07T08:03:54;5.50;99.90
22738;DHT22;11536;50.860;4.286;2022-12-07T08:06:20;5.50;99.90
22738;DHT22;11536;50.860;4.286;2022-12-07T08:08:45;5.50;99.90
22738;DHT22;11536;50.860;4.286;2022-12-07T08:11:11;5.50;99.90
22738;DHT22;11536;50.860;4.286;2022-12-07T08:13:37;5.50;99.90
22738;DHT22;11536;50.860;4.286;2022-12-07T08:16:08;5.50;99.90
22738;DHT22;11536;50.860;4.286;2022-12-07T08:18:38;5.50;99.90
22738;DHT22;11536;50.860;4.286;2022-12-07T08:21:06;5.50;99.90
22738;DHT22;11536;50.860;4.286;2022-12-07T08:23:32;5.50;99.90
22738;DHT22;11536;50.860;4.286;2022-12-07T08:26:07;5.50;99.90
22738;DHT22;11536;50.860;4.286;2022-12-07T08:28:33;5.50;99.90
22738;DHT22;11536;50.860;4.286;2022-12-07T08:31:17;5.50;99.90
22738;DHT22;11536;50.860;4.286;2022-12-07T08:33:46;5.50;99.90
22738;DHT22;11536;50.860;4.286;2022-12-07T08:36:12;5.50;99.90
22738;DHT22;11536;50.860;4.286;2022-12-07T08:38:39;5.50;99.90
22738;DHT22;11536;50.860;4.286;2022-12-07T08:41:06;5.50;99.90
22738;DHT22;11536;50.860;4.286;2022-12-07T08:43:33;5.50;99.90
22738;DHT22;11536;50.860;4.286;2022-12-07T08:46:21;5.50;99.90
22738;DHT22;11536;50.860;4.286;2022-12-07T08:48:55;5.50;99.90
22738;DHT22;11536;50.860;4.286;2022-12-07T08:51:22;5.50;99.90
22738;DHT22;11536;50.860;4.286;2022-12-07T08:53:50;5.50;99.90
22738;DHT22;11536;50.860;4.286;2022-12-07T08:56:16;5.50;99.90
22738;DHT22;11536;50.860;4.286;2022-12-07T08:58:42;5.60;99.90
22738;DHT22;11536;50.860;4.286;2022-12-07T09:01:08;5.70;99.90
22738;DHT22;11536;50.860;4.286;2022-12-07T09:03:34;5.70;99.90
22738;DHT22;11536;50.860;4.286;2022-12-07T09:06:00;5.70;99.90
22738;DHT22;11536;50.860;4.286;2022-12-07T09:08:34;5.80;99.90
22738;DHT22;11536;50.860;4.286;2022-12-07T09:11:01;5.90;99.90
22738;DHT22;11536;50.860;4.286;2022-12-07T09:13:27;5.90;99.90
22738;DHT22;11536;50.860;4.286;2022-12-07T09:15:52;6.00;99.90
22738;DHT22;11536;50.860;4.286;2022-12-07T09:18:18;6.00;99.90
22738;DHT22;11536;50.860;4.286;2022-12-07T09:20:44;6.00;99.90
22738;DHT22;11536;50.860;4.286;2022-12-07T09:23:09;6.10;99.90
22738;DHT22;11536;50.860;4.286;2022-12-07T09:25:35;6.10;99.90
22738;DHT22;11536;50.860;4.286;2022-12-07T09:28:00;6.20;99.90
22738;DHT22;11536;50.860;4.286;2022-12-07T09:30:27;6.20;99.90
22738;DHT22;11536;50.860;4.286;2022-12-07T09:32:54;6.30;99.90
22738;DHT22;11536;50.860;4.286;2022-12-07T09:35:19;6.20;99.90
22738;DHT22;11536;50.860;4.286;2022-12-07T09:37:45;6.30;99.90
22738;DHT22;11536;50.860;4.286;2022-12-07T09:40:11;6.30;99.90
22738;DHT22;11536;50.860;4.286;2022-12-07T09:42:39;6.40;99.90
22738;DHT22;11536;50.860;4.286;2022-12-07T09:45:07;6.40;99.90
22738;DHT22;11536;50.860;4.286;2022-12-07T09:47:37;6.40;99.90
22738;DHT22;11536;50.860;4.286;2022-12-07T09:50:10;6.50;99.90
22738;DHT22;11536;50.860;4.286;2022-12-07T09:52:37;6.40;99.90
22738;DHT22;11536;50.860;4.286;2022-12-07T09:55:03;6.50;99.90
22738;DHT22;11536;50.860;4.286;2022-12-07T09:57:31;6.50;99.90
22738;DHT22;11536;50.860;4.286;2022-12-07T10:00:01;6.50;99.90
22738;DHT22;11536;50.860;4.286;2022-12-07T10:02:36;6.50;99.90
22738;DHT22;11536;50.860;4.286;2022-12-07T10:05:10;6.50;99.90
22738;DHT22;11536;50.860;4.286;2022-12-07T10:07:37;6.60;99.90
22738;DHT22;11536;50.860;4.286;2022-12-07T10:10:05;6.60;99.90
22738;DHT22;11536;50.860;4.286;2022-12-07T10:12:55;6.60;99.90
22738;DHT22;11536;50.860;4.286;2022-12-07T10:15:21;6.60;99.90
22738;DHT22;11536;50.860;4.286;2022-12-07T10:17:49;6.70;99.90
22738;DHT22;11536;50.860;4.286;2022-12-07T10:20:19;6.70;99.90
22738;DHT22;11536;50.860;4.286;2022-12-07T10:22:55;6.70;99.90
22738;DHT22;11536;50.860;4.286;2022-12-07T10:25:23;6.70;99.90
22738;DHT22;11536;50.860;4.286;2022-12-07T10:30:45;6.80;99.90
22738;DHT22;11536;50.860;4.286;2022-12-07T10:33:37;6.80;99.90
22738;DHT22;11536;50.860;4.286;2022-12-07T10:36:22;6.80;99.90
22738;DHT22;11536;50.860;4.286;2022-12-07T10:39:15;6.80;99.90
22738;DHT22;11536;50.860;4.286;2022-12-07T10:44:29;6.80;99.90
22738;DHT22;11536;50.860;4.286;2022-12-07T10:55:27;6.90;99.90
22738;DHT22;11536;50.860;4.286;2022-12-07T11:06:39;7.10;99.90
22738;DHT22;11536;50.860;4.286;2022-12-07T11:15:01;7.10;99.90
22738;DHT22;11536;50.860;4.286;2022-12-07T11:23:21;7.20;99.90
22738;DHT22;11536;50.860;4.286;2022-12-07T11:26:16;7.20;99.90
22738;DHT22;11536;50.860;4.286;2022-12-07T11:31:34;7.20;99.90
22738;DHT22;11536;50.860;4.286;2022-12-07T11:34:19;7.20;99.90
22738;DHT22;11536;50.860;4.286;2022-12-07T11:36:52;7.20;99.90
22738;DHT22;11536;50.860;4.286;2022-12-07T11:41:50;7.10;99.90
22738;DHT22;11536;50.860;4.286;2022-12-07T11:44:31;7.10;99.90
22738;DHT22;11536;50.860;4.286;2022-12-07T11:49:58;7.30;99.90
22738;DHT22;11536;50.860;4.286;2022-12-07T11:54:57;7.30;99.90
22738;DHT22;11536;50.860;4.286;2022-12-07T11:57:31;7.40;99.90
22738;DHT22;11536;50.860;4.286;2022-12-07T12:00:00;7.40;99.90
22738;DHT22;11536;50.860;4.286;2022-12-07T12:03:15;7.50;99.90
22738;DHT22;11536;50.860;4.286;2022-12-07T12:05:24;7.50;99.90
22738;DHT22;11536;50.860;4.286;2022-12-07T12:08:02;7.60;99.90
22738;DHT22;11536;50.860;4.286;2022-12-07T12:13:14;7.90;99.90
22738;DHT22;11536;50.860;4.286;2022-12-07T12:26:26;7.90;99.90
22738;DHT22;11536;50.860;4.286;2022-12-07T12:31:48;8.00;99.90
22738;DHT22;11536;50.860;4.286;2022-12-07T12:34:40;8.00;99.90
22738;DHT22;11536;50.860;4.286;2022-12-07T12:45:21;8.00;99.90
22738;DHT22;11536;50.860;4.286;2022-12-07T12:48:01;8.00;99.90
22738;DHT22;11536;50.860;4.286;2022-12-07T12:52:59;8.00;99.90
22738;DHT22;11536;50.860;4.286;2022-12-07T12:56:04;8.00;99.90
22738;DHT22;11536;50.860;4.286;2022-12-07T12:58:38;8.00;99.90
22738;DHT22;11536;50.860;4.286;2022-12-07T13:04:01;8.10;99.90
22738;DHT22;11536;50.860;4.286;2022-12-07T13:06:35;8.10;99.90
22738;DHT22;11536;50.860;4.286;2022-12-07T13:09:03;8.20;99.90
22738;DHT22;11536;50.860;4.286;2022-12-07T13:11:33;8.20;99.90
22738;DHT22;11536;50.860;4.286;2022-12-07T13:17:11;8.20;99.90
22738;DHT22;11536;50.860;4.286;2022-12-07T13:25:21;8.30;99.90
22738;DHT22;11536;50.860;4.286;2022-12-07T13:30:45;8.30;99.90
22738;DHT22;11536;50.860;4.286;2022-12-07T13:33:17;8.30;99.90
22738;DHT22;11536;50.860;4.286;2022-12-07T13:35:44;8.30;99.90
22738;DHT22;11536;50.860;4.286;2022-12-07T13:38:32;8.30;99.90
22738;DHT22;11536;50.860;4.286;2022-12-07T13:44:13;8.20;99.90
22738;DHT22;11536;50.860;4.286;2022-12-07T13:49:46;8.20;99.90
22738;DHT22;11536;50.860;4.286;2022-12-07T13:52:23;8.20;99.90
22738;DHT22;11536;50.860;4.286;2022-12-07T13:54:56;8.20;99.90
22738;DHT22;11536;50.860;4.286;2022-12-07T13:57:24;8.10;99.90
22738;DHT22;11536;50.860;4.286;2022-12-07T13:59:50;8.20;99.90
22738;DHT22;11536;50.860;4.286;2022-12-07T14:02:27;8.10;99.90
22738;DHT22;11536;50.860;4.286;2022-12-07T14:05:12;8.10;99.90
22738;DHT22;11536;50.860;4.286;2022-12-07T14:10:27;8.10;99.90
22738;DHT22;11536;50.860;4.286;2022-12-07T14:12:54;8.10;99.90
22738;DHT22;11536;50.860;4.286;2022-12-07T14:15:29;8.10;99.90
22738;DHT22;11536;50.860;4.286;2022-12-07T14:17:57;8.00;99.90
22738;DHT22;11536;50.860;4.286;2022-12-07T14:20:40;8.00;99.90
22738;DHT22;11536;50.860;4.286;2022-12-07T14:23:23;8.00;99.90
22738;DHT22;11536;50.860;4.286;2022-12-07T14:25:50;7.90;99.90
22738;DHT22;11536;50.860;4.286;2022-12-07T14:28:30;7.70;99.90
22738;DHT22;11536;50.860;4.286;2022-12-07T14:30:57;7.50;99.90
22738;DHT22;11536;50.860;4.286;2022-12-07T14:33:24;7.40;99.90
22738;DHT22;11536;50.860;4.286;2022-12-07T14:35:50;7.30;99.90
22738;DHT22;11536;50.860;4.286;2022-12-07T14:38:20;7.30;99.90
22738;DHT22;11536;50.860;4.286;2022-12-07T14:40:47;7.20;99.90
22738;DHT22;11536;50.860;4.286;2022-12-07T14:43:15;7.20;99.90
22738;DHT22;11536;50.860;4.286;2022-12-07T14:45:41;7.20;99.90
22738;DHT22;11536;50.860;4.286;2022-12-07T14:48:16;7.20;99.90
22738;DHT22;11536;50.860;4.286;2022-12-07T14:50:49;7.30;99.90
22738;DHT22;11536;50.860;4.286;2022-12-07T14:53:17;7.30;99.90
22738;DHT22;11536;50.860;4.286;2022-12-07T14:55:43;7.30;99.90
22738;DHT22;11536;50.860;4.286;2022-12-07T14:58:17;7.40;99.90
22738;DHT22;11536;50.860;4.286;2022-12-07T15:00:43;7.40;99.90
22738;DHT22;11536;50.860;4.286;2022-12-07T15:03:09;7.40;99.90
22738;DHT22;11536;50.860;4.286;2022-12-07T15:05:37;7.40;99.90
22738;DHT22;11536;50.860;4.286;2022-12-07T15:08:02;7.40;99.90
22738;DHT22;11536;50.860;4.286;2022-12-07T15:10:31;7.50;99.90
22738;DHT22;11536;50.860;4.286;2022-12-07T15:12:59;7.50;99.90
22738;DHT22;11536;50.860;4.286;2022-12-07T15:15:43;7.50;99.90
22738;DHT22;11536;50.860;4.286;2022-12-07T15:18:09;7.50;99.90
22738;DHT22;11536;50.860;4.286;2022-12-07T15:20:34;7.50;99.90
22738;DHT22;11536;50.860;4.286;2022-12-07T15:23:00;7.50;99.90
22738;DHT22;11536;50.860;4.286;2022-12-07T15:25:25;7.50;99.90
22738;DHT22;11536;50.860;4.286;2022-12-07T15:27:51;7.50;99.90
22738;DHT22;11536;50.860;4.286;2022-12-07T15:30:17;7.50;99.90
22738;DHT22;11536;50.860;4.286;2022-12-07T15:32:42;7.50;99.90
22738;DHT22;11536;50.860;4.286;2022-12-07T15:35:08;7.50;99.90
22738;DHT22;11536;50.860;4.286;2022-12-07T15:37:34;7.50;99.90
22738;DHT22;11536;50.860;4.286;2022-12-07T15:39:59;7.40;99.90
22738;DHT22;11536;50.860;4.286;2022-12-07T15:42:25;7.40;99.90
22738;DHT22;11536;50.860;4.286;2022-12-07T15:44:50;7.40;99.90
22738;DHT22;11536;50.860;4.286;2022-12-07T15:47:36;7.40;99.90
22738;DHT22;11536;50.860;4.286;2022-12-07T15:50:04;7.30;99.90
22738;DHT22;11536;50.860;4.286;2022-12-07T15:52:30;7.30;99.90
22738;DHT22;11536;50.860;4.286;2022-12-07T15:54:56;7.30;99.90
22738;DHT22;11536;50.860;4.286;2022-12-07T15:57:22;7.30;99.90
22738;DHT22;11536;50.860;4.286;2022-12-07T15:59:48;7.30;99.90
22738;DHT22;11536;50.860;4.286;2022-12-07T16:02:13;7.30;99.90
22738;DHT22;11536;50.860;4.286;2022-12-07T16:04:39;7.20;99.90
22738;DHT22;11536;50.860;4.286;2022-12-07T16:07:04;7.20;99.90
22738;DHT22;11536;50.860;4.286;2022-12-07T16:09:30;7.20;99.90
22738;DHT22;11536;50.860;4.286;2022-12-07T16:11:57;7.20;99.90
22738;DHT22;11536;50.860;4.286;2022-12-07T16:14:23;7.10;99.90
22738;DHT22;11536;50.860;4.286;2022-12-07T16:16:49;7.10;99.90
22738;DHT22;11536;50.860;4.286;2022-12-07T16:19:14;7.10;99.90
22738;DHT22;11536;50.860;4.286;2022-12-07T16:21:40;7.10;99.90
22738;DHT22;11536;50.860;4.286;2022-12-07T16:24:07;7.20;99.90
22738;DHT22;11536;50.860;4.286;2022-12-07T16:26:33;7.20;99.90
22738;DHT22;11536;50.860;4.286;2022-12-07T16:28:59;7.20;99.90
22738;DHT22;11536;50.860;4.286;2022-12-07T16:31:27;7.20;99.90
22738;DHT22;11536;50.860;4.286;2022-12-07T16:33:56;7.20;99.90
22738;DHT22;11536;50.860;4.286;2022-12-07T16:36:23;7.10;99.90
22738;DHT22;11536;50.860;4.286;2022-12-07T16:38:50;7.20;99.90
22738;DHT22;11536;50.860;4.286;2022-12-07T16:41:16;7.20;99.90
22738;DHT22;11536;50.860;4.286;2022-12-07T16:43:41;7.10;99.90
22738;DHT22;11536;50.860;4.286;2022-12-07T16:46:07;7.20;99.90
22738;DHT22;11536;50.860;4.286;2022-12-07T16:48:39;7.20;99.90
22738;DHT22;11536;50.860;4.286;2022-12-07T16:51:07;7.10;99.90
22738;DHT22;11536;50.860;4.286;2022-12-07T16:53:35;7.20;99.90
22738;DHT22;11536;50.860;4.286;2022-12-07T16:56:01;7.20;99.90
22738;DHT22;11536;50.860;4.286;2022-12-07T16:58:27;7.10;99.90
22738;DHT22;11536;50.860;4.286;2022-12-07T17:00:53;7.10;99.90
22738;DHT22;11536;50.860;4.286;2022-12-07T17:03:18;7.10;99.90
22738;DHT22;11536;50.860;4.286;2022-12-07T17:05:45;7.10;99.90
22738;DHT22;11536;50.860;4.286;2022-12-07T17:08:12;7.10;99.90
22738;DHT22;11536;50.860;4.286;2022-12-07T17:10:40;7.10;99.90
22738;DHT22;11536;50.860;4.286;2022-12-07T17:13:06;7.10;99.90
22738;DHT22;11536;50.860;4.286;2022-12-07T17:15:58;7.10;99.90
22738;DHT22;11536;50.860;4.286;2022-12-07T17:18:27;7.10;99.90
22738;DHT22;11536;50.860;4.286;2022-12-07T17:20:52;7.10;99.90
22738;DHT22;11536;50.860;4.286;2022-12-07T17:23:18;7.10;99.90
22738;DHT22;11536;50.860;4.286;2022-12-07T17:25:44;7.00;99.90
22738;DHT22;11536;50.860;4.286;2022-12-07T17:28:10;7.00;99.90
22738;DHT22;11536;50.860;4.286;2022-12-07T17:30:35;7.10;99.90
22738;DHT22;11536;50.860;4.286;2022-12-07T17:33:02;7.00;99.90
22738;DHT22;11536;50.860;4.286;2022-12-07T17:35:27;7.00;99.90
22738;DHT22;11536;50.860;4.286;2022-12-07T17:37:53;7.00;99.90
22738;DHT22;11536;50.860;4.286;2022-12-07T17:40:19;7.00;99.90
22738;DHT22;11536;50.860;4.286;2022-12-07T17:42:45;7.00;99.90
22738;DHT22;11536;50.860;4.286;2022-12-07T17:45:14;7.00;99.90
22738;DHT22;11536;50.860;4.286;2022-12-07T17:47:40;7.00;99.90
22738;DHT22;11536;50.860;4.286;2022-12-07T17:50:06;7.00;99.90
22738;DHT22;11536;50.860;4.286;2022-12-07T17:52:33;7.00;99.90
22738;DHT22;11536;50.860;4.286;2022-12-07T17:55:17;7.00;99.90
22738;DHT22;11536;50.860;4.286;2022-12-07T17:57:43;7.00;99.90
22738;DHT22;11536;50.860;4.286;2022-12-07T18:00:09;7.00;99.90
22738;DHT22;11536;50.860;4.286;2022-12-07T18:02:36;7.00;99.90
22738;DHT22;11536;50.860;4.286;2022-12-07T18:05:01;7.00;99.90
22738;DHT22;11536;50.860;4.286;2022-12-07T18:07:27;6.90;99.90
22738;DHT22;11536;50.860;4.286;2022-12-07T18:09:53;7.00;99.90